Seaspan Swift — CFCV — position and weather

sailwx.info

Track history (hours):
 
Tides and Currents Weather Stations Pressure Air Temp Water Temp Dewpoint Dewpoint Depression Visibility Wind Speed Wind Dir Waves Ship Positions

Seaspan Swift

Last reported at 2018-Jul-22 23:52 UTC. Time now 2018-Jul-23 00:21 UTC.
Position N 49°09' W 123°02'.

Length 150 m; draft 4.2 m.

Type: Cargo ship. MMSI: 316033419.

Date/timePositionNaut miles runAvg speedWind from/ knotsBaromVisibWave heightAir tempDewpointWater temp
2018-Jul-22 23:52N 49°09' W 123°02'0 0.0
2018-Jul-22 23:30N 49°09' W 123°02'0 0.0
2018-Jul-22 22:30N 49°09' W 123°02'0 0.0
2018-Jul-22 21:55N 49°09' W 123°02'0 0.0
2018-Jul-22 21:27N 49°09' W 123°02'0 0.0
2018-Jul-22 20:57N 49°09' W 123°02'0 0.0
2018-Jul-22 20:27N 49°09' W 123°02'0 0.0
2018-Jul-22 20:00N 49°09' W 123°02'0 0.0
2018-Jul-22 19:30N 49°09' W 123°02'0 0.0
2018-Jul-22 18:56N 49°09' W 123°02'0 0.0
2018-Jul-22 17:56N 49°09' W 123°02'0 0.0
2018-Jul-22 17:27N 49°09' W 123°02'0 0.0
2018-Jul-22 17:00N 49°09' W 123°02'0 0.0
2018-Jul-22 16:29N 49°09' W 123°02'0 0.0
2018-Jul-22 16:00N 49°09' W 123°02'2 1.7
2018-Jul-22 15:00N 49°08' W 123°04'510.8
2018-Jul-22 14:30N 49°07' W 123°12'5 9.6
2018-Jul-22 14:00N 49°06' W 123°19'612.0
2018-Jul-22 13:30N 49°08' W 123°28'612.6
2018-Jul-22 12:59N 49°10' W 123°37'12 1.9
2018-Jul-22 06:38N 49°06' W 123°20'211.4
2018-Jul-22 06:28N 49°07' W 123°17'511.0
2018-Jul-22 05:59N 49°07' W 123°09'510.0
2018-Jul-22 05:30N 49°09' W 123°02'0 0.0
2018-Jul-21 21:59N 49°09' W 123°02'712.5
2018-Jul-21 21:23N 49°08' W 123°14'613.4
2018-Jul-21 20:58N 49°03' W 123°19'1214.4
2018-Jul-21 20:08N 48°51' W 123°19'110.1
2018-Jul-21 19:59N 48°51' W 123°21'613.1
2018-Jul-21 19:30N 48°44' W 123°21'4 8.1
2018-Jul-21 19:00N 48°41' W 123°24'0 0.0
2018-Jul-21 18:30N 48°41' W 123°24'0 0.0
2018-Jul-21 18:00N 48°41' W 123°24'0 0.0
2018-Jul-21 17:30N 48°41' W 123°24'0 0.0
2018-Jul-21 17:00N 48°41' W 123°24'0 0.0
2018-Jul-21 16:30N 48°41' W 123°24'0 0.0
2018-Jul-21 16:01N 48°41' W 123°24'0 0.0
2018-Jul-21 15:31N 48°41' W 123°24'0 0.0
2018-Jul-21 15:00N 48°41' W 123°24'0 0.0
2018-Jul-21 14:31N 48°41' W 123°24'0 0.0
2018-Jul-21 13:30N 48°41' W 123°24'0 0.0
2018-Jul-21 13:01N 48°41' W 123°24'0 0.0
2018-Jul-21 12:30N 48°41' W 123°24'1 2.2
2018-Jul-21 12:01N 48°42' W 123°23'612.0
2018-Jul-21 11:30N 48°47' W 123°21'611.7
2018-Jul-21 10:58N 48°54' W 123°18'715.0
2018-Jul-21 10:30N 49°00' W 123°20'913.8
2018-Jul-21 09:52N 49°08' W 123°14'613.4
2018-Jul-21 09:24N 49°08' W 123°04'1 0.7
2018-Jul-21 07:35N 49°09' W 123°02'1 3.9
2018-Jul-21 07:21N 49°08' W 123°03'711.5
2018-Jul-21 06:45N 49°08' W 123°14'412.0
2018-Jul-21 06:26N 49°06' W 123°19'613.0
2018-Jul-21 05:58N 49°08' W 123°28'4 0.9
2018-Jul-21 01:22N 49°10' W 123°33'715.0
2018-Jul-21 00:53N 49°07' W 123°23'512.0
2018-Jul-21 00:28N 49°07' W 123°15'714.1
2018-Jul-21 00:00N 49°07' W 123°05'3 5.5
2018-Jul-20 23:30N 49°09' W 123°02'0 0.0
2018-Jul-20 22:54N 49°09' W 123°02'0 0.0
2018-Jul-20 22:25N 49°09' W 123°02'0 0.4
2018-Jul-20 21:58N 49°09' W 123°02'811.9
2018-Jul-20 21:20N 49°08' W 123°14'513.3
2018-Jul-20 20:57N 49°04' W 123°19'716.1
2018-Jul-20 20:30N 48°57' W 123°18'611.0
2018-Jul-20 19:59N 48°52' W 123°21'612.7
2018-Jul-20 19:30N 48°45' W 123°20'5 9.8
2018-Jul-20 19:00N 48°41' W 123°24'0 0.1
2018-Jul-20 18:30N 48°41' W 123°24'0 0.0
2018-Jul-20 18:00N 48°41' W 123°24'0 0.0
2018-Jul-20 17:30N 48°41' W 123°24'0 0.0
2018-Jul-20 17:00N 48°41' W 123°24'0 0.0
2018-Jul-20 16:30N 48°41' W 123°24'0 0.0
2018-Jul-20 16:00N 48°41' W 123°24'0 0.0
2018-Jul-20 15:30N 48°41' W 123°24'0 0.0
2018-Jul-20 15:00N 48°41' W 123°24'0 0.0
2018-Jul-20 14:30N 48°41' W 123°24'0 0.0
2018-Jul-20 14:00N 48°41' W 123°24'0 0.0
2018-Jul-20 13:30N 48°41' W 123°24'0 0.0
2018-Jul-20 13:00N 48°41' W 123°24'0 0.0
2018-Jul-20 12:30N 48°41' W 123°24'2 4.4
2018-Jul-20 12:00N 48°42' W 123°21'714.3
2018-Jul-20 11:30N 48°49' W 123°21'612.2
2018-Jul-20 10:59N 48°55' W 123°17'815.1
2018-Jul-20 10:29N 49°03' W 123°19'612.2
2018-Jul-20 09:58N 49°08' W 123°13'7 3.3
2018-Jul-20 07:49N 49°09' W 123°02'3 6.6
2018-Jul-20 07:20N 49°07' W 123°06'512.6
2018-Jul-20 06:57N 49°08' W 123°13'510.2
2018-Jul-20 06:27N 49°06' W 123°21'511.3
2018-Jul-20 05:59N 49°08' W 123°28'712.8
2018-Jul-20 05:26N 49°10' W 123°38'12 2.6
2018-Jul-20 00:43N 49°06' W 123°20'313.0
2018-Jul-20 00:30N 49°07' W 123°16'613.0
2018-Jul-20 00:00N 49°07' W 123°07'4 6.3
2018-Jul-19 23:27N 49°09' W 123°02'0 0.0
2018-Jul-19 22:23N 49°09' W 123°02'0 0.3
2018-Jul-19 21:58N 49°09' W 123°02'711.6
2018-Jul-19 21:24N 49°07' W 123°12'612.3
2018-Jul-19 20:56N 49°04' W 123°20'1116.1
2018-Jul-19 20:13N 48°53' W 123°18'210.2
2018-Jul-19 20:00N 48°52' W 123°20'611.5
2018-Jul-19 19:30N 48°46' W 123°20'510.1
2018-Jul-19 19:01N 48°41' W 123°24'0 0.3
2018-Jul-19 18:30N 48°41' W 123°24'0 0.0
2018-Jul-19 18:00N 48°41' W 123°24'0 0.0
2018-Jul-19 17:30N 48°41' W 123°24'0 0.0
2018-Jul-19 17:00N 48°41' W 123°24'0 0.0
2018-Jul-19 16:30N 48°41' W 123°24'0 0.0
2018-Jul-19 16:00N 48°41' W 123°24'0 0.0
2018-Jul-19 15:30N 48°41' W 123°24'0 0.0
2018-Jul-19 15:00N 48°41' W 123°24'0 0.0
2018-Jul-19 14:00N 48°41' W 123°24'0 0.0
2018-Jul-19 13:30N 48°41' W 123°24'0 0.0
2018-Jul-19 13:00N 48°41' W 123°24'0 0.2
2018-Jul-19 12:30N 48°41' W 123°24'5 9.6
2018-Jul-19 12:00N 48°46' W 123°21'611.4
2018-Jul-19 11:27N 48°52' W 123°19'613.0
2018-Jul-19 11:00N 48°58' W 123°20'712.2
2018-Jul-19 10:26N 49°05' W 123°21'812.3
2018-Jul-19 09:47N 49°07' W 123°09'413.5
2018-Jul-19 09:30N 49°08' W 123°04'1 0.7
2018-Jul-19 07:34N 49°09' W 123°02'0 1.7
2018-Jul-19 07:30N 49°09' W 123°02'611.8
2018-Jul-19 06:59N 49°07' W 123°11'713.3
2018-Jul-19 06:29N 49°06' W 123°21'713.7
2018-Jul-19 05:58N 49°09' W 123°32'6 1.3
2018-Jul-19 00:56N 49°07' W 123°22'512.5
2018-Jul-19 00:30N 49°08' W 123°14'713.1
2018-Jul-19 00:00N 49°07' W 123°04'2 3.6
2018-Jul-18 23:29N 49°09' W 123°02'0 0.0
2018-Jul-18 23:00N 49°09' W 123°02'0 0.0
2018-Jul-18 22:30N 49°09' W 123°02'3 4.9
2018-Jul-18 21:53N 49°07' W 123°06'612.0
2018-Jul-18 21:22N 49°08' W 123°15'411.7
2018-Jul-18 20:59N 49°04' W 123°20'1115.9
2018-Jul-18 20:16N 48°53' W 123°18'3 9.6
2018-Jul-18 19:58N 48°51' W 123°21'612.2
2018-Jul-18 19:30N 48°45' W 123°21'4 9.1
2018-Jul-18 19:00N 48°41' W 123°24'0 0.0
2018-Jul-18 18:30N 48°41' W 123°24'0 0.0
2018-Jul-18 18:00N 48°41' W 123°24'0 0.0
2018-Jul-18 17:30N 48°41' W 123°24'0 0.0
2018-Jul-18 17:00N 48°41' W 123°24'0 0.0
2018-Jul-18 16:30N 48°41' W 123°24'0 0.0
2018-Jul-18 16:00N 48°41' W 123°24'0 0.0
2018-Jul-18 15:30N 48°41' W 123°24'0 0.0
2018-Jul-18 15:00N 48°41' W 123°24'0 0.0
2018-Jul-18 14:30N 48°41' W 123°24'0 0.0
2018-Jul-18 13:30N 48°41' W 123°24'0 0.0
2018-Jul-18 13:00N 48°41' W 123°24'0 0.0
2018-Jul-18 12:30N 48°41' W 123°24'3 6.3
2018-Jul-18 12:01N 48°43' W 123°21'714.9
2018-Jul-18 11:30N 48°51' W 123°21'1111.2
2018-Jul-18 10:30N 49°02' W 123°19'612.4
2018-Jul-18 10:00N 49°08' W 123°15'714.2
2018-Jul-18 09:30N 49°08' W 123°04'2 3.0
2018-Jul-18 08:56N 49°09' W 123°02'0 0.0
2018-Jul-18 08:30N 49°09' W 123°02'0 0.0
2018-Jul-18 08:00N 49°09' W 123°02'0 0.6
2018-Jul-18 07:29N 49°09' W 123°03'611.7
2018-Jul-18 06:59N 49°07' W 123°11'612.4
2018-Jul-18 06:29N 49°06' W 123°20'714.3
2018-Jul-18 05:59N 49°09' W 123°31'2 0.4
2018-Jul-18 01:28N 49°10' W 123°33'715.3
2018-Jul-18 01:00N 49°07' W 123°23'712.6
2018-Jul-18 00:25N 49°07' W 123°12'613.0
2018-Jul-17 23:58N 49°08' W 123°03'1 1.5
2018-Jul-17 23:30N 49°09' W 123°02'0 0.0
2018-Jul-17 22:57N 49°09' W 123°02'0 0.0
2018-Jul-17 22:28N 49°09' W 123°02'1 2.1
2018-Jul-17 22:00N 49°08' W 123°03'510.9
2018-Jul-17 21:30N 49°07' W 123°11'610.4
2018-Jul-17 20:57N 49°05' W 123°20'1115.7
2018-Jul-17 20:16N 48°54' W 123°18'311.0
2018-Jul-17 20:00N 48°52' W 123°20'611.8
2018-Jul-17 19:30N 48°46' W 123°21'510.2
2018-Jul-17 19:00N 48°41' W 123°24'0 0.0
2018-Jul-17 18:30N 48°41' W 123°24'0 0.0
2018-Jul-17 18:00N 48°41' W 123°24'0 0.0
2018-Jul-17 17:30N 48°41' W 123°24'0 0.0
2018-Jul-17 17:00N 48°41' W 123°24'0 0.0
2018-Jul-17 16:30N 48°41' W 123°24'0 0.0
2018-Jul-17 16:00N 48°41' W 123°24'0 0.0
2018-Jul-17 15:30N 48°41' W 123°24'0 0.0
2018-Jul-17 15:00N 48°41' W 123°24'0 0.0
2018-Jul-17 14:30N 48°41' W 123°24'0 0.0
2018-Jul-17 14:00N 48°41' W 123°24'0 0.0
2018-Jul-17 13:30N 48°41' W 123°24'0 0.0
2018-Jul-17 13:00N 48°41' W 123°24'0 0.0
2018-Jul-17 12:30N 48°41' W 123°24'1 2.1
2018-Jul-17 12:00N 48°42' W 123°23'613.1
2018-Jul-17 11:30N 48°48' W 123°21'812.6
2018-Jul-17 10:54N 48°55' W 123°18'614.8
2018-Jul-17 10:30N 49°01' W 123°20'714.2
2018-Jul-17 10:00N 49°07' W 123°15'815.1
2018-Jul-17 09:30N 49°08' W 123°04'1 2.9
2018-Jul-17 08:59N 49°09' W 123°02'0 0.0
2018-Jul-17 08:27N 49°09' W 123°02'0 0.0
2018-Jul-17 07:37N 49°09' W 123°02'0 0.0
2018-Jul-17 07:29N 49°09' W 123°02'3 6.4
2018-Jul-17 07:00N 49°07' W 123°06'612.8
2018-Jul-17 06:30N 49°07' W 123°16'712.4
2018-Jul-17 05:58N 49°07' W 123°26'715.1
2018-Jul-17 05:30N 49°10' W 123°36'5 1.1
2018-Jul-17 01:14N 49°09' W 123°29'515.8
2018-Jul-17 00:55N 49°07' W 123°21'613.2
2018-Jul-17 00:29N 49°08' W 123°13'7 7.0
2018-Jul-16 23:27N 49°09' W 123°02'0 0.0
2018-Jul-16 22:59N 49°09' W 123°02'0 0.0
2018-Jul-16 22:23N 49°09' W 123°02'3 6.4
2018-Jul-16 21:57N 49°07' W 123°05'611.6
2018-Jul-16 21:28N 49°08' W 123°14'511.1
2018-Jul-16 21:00N 49°04' W 123°19'1115.2
2018-Jul-16 20:16N 48°53' W 123°18'310.6
2018-Jul-16 19:59N 48°51' W 123°21'613.2
2018-Jul-16 19:30N 48°45' W 123°21'4 8.0
2018-Jul-16 19:00N 48°41' W 123°24'0 0.0
2018-Jul-16 18:29N 48°41' W 123°24'0 0.0
2018-Jul-16 18:00N 48°41' W 123°24'0 0.0
2018-Jul-16 17:30N 48°41' W 123°24'0 0.0
2018-Jul-16 17:00N 48°41' W 123°24'0 0.0
2018-Jul-16 16:30N 48°41' W 123°24'0 0.0
2018-Jul-16 16:00N 48°41' W 123°24'0 0.0
2018-Jul-16 15:30N 48°41' W 123°24'0 0.0
2018-Jul-16 15:00N 48°41' W 123°24'0 0.0
2018-Jul-16 14:30N 48°41' W 123°24'0 0.0
2018-Jul-16 13:59N 48°41' W 123°24'0 0.0
2018-Jul-16 13:30N 48°41' W 123°24'0 0.0
2018-Jul-16 13:00N 48°41' W 123°24'0 0.0
2018-Jul-16 12:30N 48°41' W 123°24'0 0.0
2018-Jul-16 12:00N 48°41' W 123°24'0 0.0
2018-Jul-16 11:30N 48°41' W 123°24'0 0.0
2018-Jul-16 11:00N 48°41' W 123°24'0 0.0
2018-Jul-16 10:31N 48°41' W 123°24'0 0.0
2018-Jul-16 10:00N 48°41' W 123°24'3 6.5
2018-Jul-16 09:29N 48°44' W 123°21'612.1
2018-Jul-16 09:00N 48°50' W 123°21'6 9.7
2018-Jul-16 08:25N 48°55' W 123°18'511.7
2018-Jul-16 08:00N 48°60' W 123°21'612.0
2018-Jul-16 07:30N 49°06' W 123°20'613.3
2018-Jul-16 07:00N 49°07' W 123°10'5 9.7
2018-Jul-16 06:27N 49°09' W 123°02'0 0.0
2018-Jul-16 06:00N 49°09' W 123°02'0 0.0
2018-Jul-16 05:30N 49°09' W 123°02'0 0.0
2018-Jul-16 05:00N 49°09' W 123°02'0 0.0
2018-Jul-16 04:30N 49°09' W 123°02'0 0.0
2018-Jul-16 03:55N 49°09' W 123°02'0 0.0
2018-Jul-16 03:28N 49°09' W 123°02'0 0.0
2018-Jul-16 02:59N 49°09' W 123°02'0 0.0
2018-Jul-16 02:28N 49°09' W 123°02'0 0.0
2018-Jul-16 02:00N 49°09' W 123°02'0 0.0
2018-Jul-16 01:30N 49°09' W 123°02'0 0.0
2018-Jul-16 00:53N 49°09' W 123°02'0 0.0
2018-Jul-16 00:23N 49°09' W 123°02'0 0.0
2018-Jul-15 23:53N 49°09' W 123°02'0 0.0
2018-Jul-15 23:22N 49°09' W 123°02'0 0.0
2018-Jul-15 22:59N 49°09' W 123°02'0 0.0
2018-Jul-15 22:26N 49°09' W 123°02'0 0.0
2018-Jul-15 21:54N 49°09' W 123°02'0 0.0
2018-Jul-15 21:29N 49°09' W 123°02'0 0.0
2018-Jul-15 21:00N 49°09' W 123°02'0 0.0
2018-Jul-15 20:30N 49°09' W 123°02'0 0.0
2018-Jul-15 20:00N 49°09' W 123°02'0 0.0
2018-Jul-15 19:30N 49°09' W 123°02'0 0.0
2018-Jul-15 19:00N 49°09' W 123°02'0 0.0
2018-Jul-15 18:30N 49°09' W 123°02'0 0.0
2018-Jul-15 17:59N 49°09' W 123°02'0 0.0
2018-Jul-15 17:30N 49°09' W 123°02'0 0.0
2018-Jul-15 16:59N 49°09' W 123°02'0 0.0
2018-Jul-15 16:30N 49°09' W 123°02'0 0.0
2018-Jul-15 16:00N 49°09' W 123°02'0 0.0
2018-Jul-15 15:30N 49°09' W 123°02'2 3.5
2018-Jul-15 15:00N 49°08' W 123°04'610.2
2018-Jul-15 14:25N 49°08' W 123°13'510.7
2018-Jul-15 13:57N 49°06' W 123°20'511.3
2018-Jul-15 13:30N 49°08' W 123°28'710.8
2018-Jul-15 12:53N 49°10' W 123°37'411.1
2018-Jul-15 12:30N 49°12' W 123°43'7 1.8
2018-Jul-15 08:51N 49°09' W 123°52'18 8.7
2018-Jul-15 06:47N 49°07' W 123°25'310.5
2018-Jul-15 06:28N 49°06' W 123°20'612.2
2018-Jul-15 06:00N 49°07' W 123°12'612.1
2018-Jul-15 05:30N 49°09' W 123°03'0 0.5
2018-Jul-15 05:00N 49°09' W 123°02'0 0.0
2018-Jul-15 04:29N 49°09' W 123°02'0 0.0
2018-Jul-15 03:59N 49°09' W 123°02'0 0.0
2018-Jul-15 03:30N 49°09' W 123°02'0 0.0
2018-Jul-15 02:59N 49°09' W 123°02'0 0.0
2018-Jul-15 02:30N 49°09' W 123°02'0 0.0
2018-Jul-15 02:00N 49°09' W 123°02'0 0.0
2018-Jul-15 01:30N 49°09' W 123°02'0 0.0
2018-Jul-15 01:00N 49°09' W 123°02'0 0.0
2018-Jul-15 00:30N 49°09' W 123°02'0 0.0
2018-Jul-14 23:58N 49°09' W 123°02'0 0.0
2018-Jul-14 22:11N 49°09' W 123°02'0 2.5
2018-Jul-14 22:01N 49°08' W 123°03'611.0
2018-Jul-14 21:30N 49°07' W 123°11'611.1
2018-Jul-14 21:00N 49°06' W 123°19'714.7
2018-Jul-14 20:30N 48°59' W 123°17'713.9
2018-Jul-14 19:59N 48°52' W 123°20'612.8
2018-Jul-14 19:30N 48°46' W 123°21'5 9.5
2018-Jul-14 19:01N 48°41' W 123°24'0 0.4
2018-Jul-14 18:30N 48°41' W 123°24'0 0.0
2018-Jul-14 18:00N 48°41' W 123°24'0 0.0
2018-Jul-14 17:30N 48°41' W 123°24'0 0.0
2018-Jul-14 17:00N 48°41' W 123°24'0 0.0
2018-Jul-14 16:30N 48°41' W 123°24'0 0.0
2018-Jul-14 16:00N 48°41' W 123°24'0 0.0
2018-Jul-14 15:30N 48°41' W 123°24'0 0.0
2018-Jul-14 15:00N 48°41' W 123°24'0 0.0
2018-Jul-14 14:30N 48°41' W 123°24'0 0.0
2018-Jul-14 13:30N 48°41' W 123°24'0 0.0
2018-Jul-14 13:00N 48°41' W 123°24'0 0.0
2018-Jul-14 12:29N 48°41' W 123°24'1 1.6
2018-Jul-14 12:00N 48°42' W 123°23'612.7
2018-Jul-14 11:30N 48°48' W 123°21'811.8
2018-Jul-14 10:52N 48°55' W 123°19'513.9
2018-Jul-14 10:30N 48°60' W 123°21'611.4
2018-Jul-14 09:58N 49°06' W 123°19'713.0
2018-Jul-14 09:27N 49°07' W 123°09'511.2
2018-Jul-14 09:00N 49°09' W 123°02'0 0.1
2018-Jul-14 08:30N 49°09' W 123°02'0 0.0
2018-Jul-14 08:00N 49°09' W 123°02'0 0.0
2018-Jul-14 07:30N 49°09' W 123°02'3 6.3
2018-Jul-14 07:00N 49°07' W 123°06'612.0
2018-Jul-14 06:30N 49°07' W 123°15'714.0
2018-Jul-14 05:59N 49°07' W 123°26'815.8
2018-Jul-14 05:28N 49°10' W 123°38'9 1.9
2018-Jul-14 01:05N 49°08' W 123°25'113.0
2018-Jul-14 00:59N 49°07' W 123°23'612.2
2018-Jul-14 00:30N 49°08' W 123°14'713.2
2018-Jul-14 00:00N 49°08' W 123°04'2 3.6
2018-Jul-13 23:30N 49°09' W 123°02'0 0.0
2018-Jul-13 23:00N 49°09' W 123°02'0 0.0
2018-Jul-13 22:30N 49°09' W 123°02'2 3.5
2018-Jul-13 22:00N 49°08' W 123°04'612.2
2018-Jul-13 21:30N 49°08' W 123°13'5 9.9
2018-Jul-13 20:58N 49°04' W 123°18'713.3
2018-Jul-13 20:26N 48°57' W 123°17'612.3
2018-Jul-13 19:59N 48°52' W 123°20'713.2
2018-Jul-13 19:29N 48°45' W 123°20'5 9.6
2018-Jul-13 19:00N 48°41' W 123°24'0 0.0
2018-Jul-13 18:30N 48°41' W 123°24'0 0.0
2018-Jul-13 18:00N 48°41' W 123°24'0 0.0
2018-Jul-13 17:30N 48°41' W 123°24'0 0.0
2018-Jul-13 17:00N 48°41' W 123°24'0 0.0
2018-Jul-13 16:30N 48°41' W 123°24'0 0.0
2018-Jul-13 16:00N 48°41' W 123°24'0 0.0
2018-Jul-13 15:30N 48°41' W 123°24'0 0.0
2018-Jul-13 15:00N 48°41' W 123°24'0 0.0
2018-Jul-13 14:00N 48°41' W 123°24'0 0.0
2018-Jul-13 13:30N 48°41' W 123°24'0 0.0
2018-Jul-13 13:00N 48°41' W 123°24'0 0.0
2018-Jul-13 12:30N 48°41' W 123°24'2 3.9
2018-Jul-13 12:01N 48°42' W 123°22'916.1
2018-Jul-13 11:28N 48°51' W 123°21'613.0
2018-Jul-13 11:00N 48°57' W 123°20'817.0
2018-Jul-13 10:30N 49°05' W 123°23'713.8
2018-Jul-13 09:58N 49°08' W 123°13'613.8
2018-Jul-13 09:30N 49°08' W 123°03'1 1.7
2018-Jul-13 09:00N 49°09' W 123°02'0 0.0
2018-Jul-13 08:29N 49°09' W 123°02'0 0.0
2018-Jul-13 08:00N 49°09' W 123°02'0 0.0
2018-Jul-13 07:29N 49°09' W 123°02'2 3.5
2018-Jul-13 07:00N 49°08' W 123°04'611.9
2018-Jul-13 06:29N 49°08' W 123°13'613.3
2018-Jul-13 06:00N 49°06' W 123°23'816.0
2018-Jul-13 05:30N 49°09' W 123°34'9 1.9
2018-Jul-13 00:41N 49°06' W 123°21'314.1
2018-Jul-13 00:30N 49°07' W 123°17'713.7
2018-Jul-12 23:58N 49°07' W 123°06'  
Track history (hours):
 
Tides and Currents Weather Stations Pressure Air Temp Water Temp Dewpoint Dewpoint Depression Visibility Wind Speed Wind Dir Waves Ship Positions

Seaspan Swift

Last reported at 2018-Jul-22 23:52 UTC. Time now 2018-Jul-23 00:21 UTC.
Position N 49°09' W 123°02'.

Length 150 m; draft 4.2 m.

Type: Cargo ship. MMSI: 316033419.

Date/timePositionNaut miles runAvg speedWind from/ knotsBaromVisibWave heightAir tempDewpointWater temp
2018-Jul-22 23:52N 49°09' W 123°02'0 0.0
2018-Jul-22 23:30N 49°09' W 123°02'0 0.0
2018-Jul-22 22:30N 49°09' W 123°02'0 0.0
2018-Jul-22 21:55N 49°09' W 123°02'0 0.0
2018-Jul-22 21:27N 49°09' W 123°02'0 0.0
2018-Jul-22 20:57N 49°09' W 123°02'0 0.0
2018-Jul-22 20:27N 49°09' W 123°02'0 0.0
2018-Jul-22 20:00N 49°09' W 123°02'0 0.0
2018-Jul-22 19:30N 49°09' W 123°02'0 0.0
2018-Jul-22 18:56N 49°09' W 123°02'0 0.0
2018-Jul-22 17:56N 49°09' W 123°02'0 0.0
2018-Jul-22 17:27N 49°09' W 123°02'0 0.0
2018-Jul-22 17:00N 49°09' W 123°02'0 0.0
2018-Jul-22 16:29N 49°09' W 123°02'0 0.0
2018-Jul-22 16:00N 49°09' W 123°02'2 1.7
2018-Jul-22 15:00N 49°08' W 123°04'510.8
2018-Jul-22 14:30N 49°07' W 123°12'5 9.6
2018-Jul-22 14:00N 49°06' W 123°19'612.0
2018-Jul-22 13:30N 49°08' W 123°28'612.6
2018-Jul-22 12:59N 49°10' W 123°37'12 1.9
2018-Jul-22 06:38N 49°06' W 123°20'211.4
2018-Jul-22 06:28N 49°07' W 123°17'511.0
2018-Jul-22 05:59N 49°07' W 123°09'510.0
2018-Jul-22 05:30N 49°09' W 123°02'0 0.0
2018-Jul-21 21:59N 49°09' W 123°02'712.5
2018-Jul-21 21:23N 49°08' W 123°14'613.4
2018-Jul-21 20:58N 49°03' W 123°19'1214.4
2018-Jul-21 20:08N 48°51' W 123°19'110.1
2018-Jul-21 19:59N 48°51' W 123°21'613.1
2018-Jul-21 19:30N 48°44' W 123°21'4 8.1
2018-Jul-21 19:00N 48°41' W 123°24'0 0.0
2018-Jul-21 18:30N 48°41' W 123°24'0 0.0
2018-Jul-21 18:00N 48°41' W 123°24'0 0.0
2018-Jul-21 17:30N 48°41' W 123°24'0 0.0
2018-Jul-21 17:00N 48°41' W 123°24'0 0.0
2018-Jul-21 16:30N 48°41' W 123°24'0 0.0
2018-Jul-21 16:01N 48°41' W 123°24'0 0.0
2018-Jul-21 15:31N 48°41' W 123°24'0 0.0
2018-Jul-21 15:00N 48°41' W 123°24'0 0.0
2018-Jul-21 14:31N 48°41' W 123°24'0 0.0
2018-Jul-21 13:30N 48°41' W 123°24'0 0.0
2018-Jul-21 13:01N 48°41' W 123°24'0 0.0
2018-Jul-21 12:30N 48°41' W 123°24'1 2.2
2018-Jul-21 12:01N 48°42' W 123°23'612.0
2018-Jul-21 11:30N 48°47' W 123°21'611.7
2018-Jul-21 10:58N 48°54' W 123°18'715.0
2018-Jul-21 10:30N 49°00' W 123°20'913.8
2018-Jul-21 09:52N 49°08' W 123°14'613.4
2018-Jul-21 09:24N 49°08' W 123°04'1 0.7
2018-Jul-21 07:35N 49°09' W 123°02'1 3.9
2018-Jul-21 07:21N 49°08' W 123°03'711.5
2018-Jul-21 06:45N 49°08' W 123°14'412.0
2018-Jul-21 06:26N 49°06' W 123°19'613.0
2018-Jul-21 05:58N 49°08' W 123°28'4 0.9
2018-Jul-21 01:22N 49°10' W 123°33'715.0
2018-Jul-21 00:53N 49°07' W 123°23'512.0
2018-Jul-21 00:28N 49°07' W 123°15'714.1
2018-Jul-21 00:00N 49°07' W 123°05'3 5.5
2018-Jul-20 23:30N 49°09' W 123°02'0 0.0
2018-Jul-20 22:54N 49°09' W 123°02'0 0.0
2018-Jul-20 22:25N 49°09' W 123°02'0 0.4
2018-Jul-20 21:58N 49°09' W 123°02'811.9
2018-Jul-20 21:20N 49°08' W 123°14'513.3
2018-Jul-20 20:57N 49°04' W 123°19'716.1
2018-Jul-20 20:30N 48°57' W 123°18'611.0
2018-Jul-20 19:59N 48°52' W 123°21'612.7
2018-Jul-20 19:30N 48°45' W 123°20'5 9.8
2018-Jul-20 19:00N 48°41' W 123°24'0 0.1
2018-Jul-20 18:30N 48°41' W 123°24'0 0.0
2018-Jul-20 18:00N 48°41' W 123°24'0 0.0
2018-Jul-20 17:30N 48°41' W 123°24'0 0.0
2018-Jul-20 17:00N 48°41' W 123°24'0 0.0
2018-Jul-20 16:30N 48°41' W 123°24'0 0.0
2018-Jul-20 16:00N 48°41' W 123°24'0 0.0
2018-Jul-20 15:30N 48°41' W 123°24'0 0.0
2018-Jul-20 15:00N 48°41' W 123°24'0 0.0
2018-Jul-20 14:30N 48°41' W 123°24'0 0.0
2018-Jul-20 14:00N 48°41' W 123°24'0 0.0
2018-Jul-20 13:30N 48°41' W 123°24'0 0.0
2018-Jul-20 13:00N 48°41' W 123°24'0 0.0
2018-Jul-20 12:30N 48°41' W 123°24'2 4.4
2018-Jul-20 12:00N 48°42' W 123°21'714.3
2018-Jul-20 11:30N 48°49' W 123°21'612.2
2018-Jul-20 10:59N 48°55' W 123°17'815.1
2018-Jul-20 10:29N 49°03' W 123°19'612.2
2018-Jul-20 09:58N 49°08' W 123°13'7 3.3
2018-Jul-20 07:49N 49°09' W 123°02'3 6.6
2018-Jul-20 07:20N 49°07' W 123°06'512.6
2018-Jul-20 06:57N 49°08' W 123°13'510.2
2018-Jul-20 06:27N 49°06' W 123°21'511.3
2018-Jul-20 05:59N 49°08' W 123°28'712.8
2018-Jul-20 05:26N 49°10' W 123°38'12 2.6
2018-Jul-20 00:43N 49°06' W 123°20'313.0
2018-Jul-20 00:30N 49°07' W 123°16'613.0
2018-Jul-20 00:00N 49°07' W 123°07'4 6.3
2018-Jul-19 23:27N 49°09' W 123°02'0 0.0
2018-Jul-19 22:23N 49°09' W 123°02'0 0.3
2018-Jul-19 21:58N 49°09' W 123°02'711.6
2018-Jul-19 21:24N 49°07' W 123°12'612.3
2018-Jul-19 20:56N 49°04' W 123°20'1116.1
2018-Jul-19 20:13N 48°53' W 123°18'210.2
2018-Jul-19 20:00N 48°52' W 123°20'611.5
2018-Jul-19 19:30N 48°46' W 123°20'510.1
2018-Jul-19 19:01N 48°41' W 123°24'0 0.3
2018-Jul-19 18:30N 48°41' W 123°24'0 0.0
2018-Jul-19 18:00N 48°41' W 123°24'0 0.0
2018-Jul-19 17:30N 48°41' W 123°24'0 0.0
2018-Jul-19 17:00N 48°41' W 123°24'0 0.0
2018-Jul-19 16:30N 48°41' W 123°24'0 0.0
2018-Jul-19 16:00N 48°41' W 123°24'0 0.0
2018-Jul-19 15:30N 48°41' W 123°24'0 0.0
2018-Jul-19 15:00N 48°41' W 123°24'0 0.0
2018-Jul-19 14:00N 48°41' W 123°24'0 0.0
2018-Jul-19 13:30N 48°41' W 123°24'0 0.0
2018-Jul-19 13:00N 48°41' W 123°24'0 0.2
2018-Jul-19 12:30N 48°41' W 123°24'5 9.6
2018-Jul-19 12:00N 48°46' W 123°21'611.4
2018-Jul-19 11:27N 48°52' W 123°19'613.0
2018-Jul-19 11:00N 48°58' W 123°20'712.2
2018-Jul-19 10:26N 49°05' W 123°21'812.3
2018-Jul-19 09:47N 49°07' W 123°09'413.5
2018-Jul-19 09:30N 49°08' W 123°04'1 0.7
2018-Jul-19 07:34N 49°09' W 123°02'0 1.7
2018-Jul-19 07:30N 49°09' W 123°02'611.8
2018-Jul-19 06:59N 49°07' W 123°11'713.3
2018-Jul-19 06:29N 49°06' W 123°21'713.7
2018-Jul-19 05:58N 49°09' W 123°32'6 1.3
2018-Jul-19 00:56N 49°07' W 123°22'512.5
2018-Jul-19 00:30N 49°08' W 123°14'713.1
2018-Jul-19 00:00N 49°07' W 123°04'2 3.6
2018-Jul-18 23:29N 49°09' W 123°02'0 0.0
2018-Jul-18 23:00N 49°09' W 123°02'0 0.0
2018-Jul-18 22:30N 49°09' W 123°02'3 4.9
2018-Jul-18 21:53N 49°07' W 123°06'612.0
2018-Jul-18 21:22N 49°08' W 123°15'411.7
2018-Jul-18 20:59N 49°04' W 123°20'1115.9
2018-Jul-18 20:16N 48°53' W 123°18'3 9.6
2018-Jul-18 19:58N 48°51' W 123°21'612.2
2018-Jul-18 19:30N 48°45' W 123°21'4 9.1
2018-Jul-18 19:00N 48°41' W 123°24'0 0.0
2018-Jul-18 18:30N 48°41' W 123°24'0 0.0
2018-Jul-18 18:00N 48°41' W 123°24'0 0.0
2018-Jul-18 17:30N 48°41' W 123°24'0 0.0
2018-Jul-18 17:00N 48°41' W 123°24'0 0.0
2018-Jul-18 16:30N 48°41' W 123°24'0 0.0
2018-Jul-18 16:00N 48°41' W 123°24'0 0.0
2018-Jul-18 15:30N 48°41' W 123°24'0 0.0
2018-Jul-18 15:00N 48°41' W 123°24'0 0.0
2018-Jul-18 14:30N 48°41' W 123°24'0 0.0
2018-Jul-18 13:30N 48°41' W 123°24'0 0.0
2018-Jul-18 13:00N 48°41' W 123°24'0 0.0
2018-Jul-18 12:30N 48°41' W 123°24'3 6.3
2018-Jul-18 12:01N 48°43' W 123°21'714.9
2018-Jul-18 11:30N 48°51' W 123°21'1111.2
2018-Jul-18 10:30N 49°02' W 123°19'612.4
2018-Jul-18 10:00N 49°08' W 123°15'714.2
2018-Jul-18 09:30N 49°08' W 123°04'2 3.0
2018-Jul-18 08:56N 49°09' W 123°02'0 0.0
2018-Jul-18 08:30N 49°09' W 123°02'0 0.0
2018-Jul-18 08:00N 49°09' W 123°02'0 0.6
2018-Jul-18 07:29N 49°09' W 123°03'611.7
2018-Jul-18 06:59N 49°07' W 123°11'612.4
2018-Jul-18 06:29N 49°06' W 123°20'714.3
2018-Jul-18 05:59N 49°09' W 123°31'2 0.4
2018-Jul-18 01:28N 49°10' W 123°33'715.3
2018-Jul-18 01:00N 49°07' W 123°23'712.6
2018-Jul-18 00:25N 49°07' W 123°12'613.0
2018-Jul-17 23:58N 49°08' W 123°03'1 1.5
2018-Jul-17 23:30N 49°09' W 123°02'0 0.0
2018-Jul-17 22:57N 49°09' W 123°02'0 0.0
2018-Jul-17 22:28N 49°09' W 123°02'1 2.1
2018-Jul-17 22:00N 49°08' W 123°03'510.9
2018-Jul-17 21:30N 49°07' W 123°11'610.4
2018-Jul-17 20:57N 49°05' W 123°20'1115.7
2018-Jul-17 20:16N 48°54' W 123°18'311.0
2018-Jul-17 20:00N 48°52' W 123°20'611.8
2018-Jul-17 19:30N 48°46' W 123°21'510.2
2018-Jul-17 19:00N 48°41' W 123°24'0 0.0
2018-Jul-17 18:30N 48°41' W 123°24'0 0.0
2018-Jul-17 18:00N 48°41' W 123°24'0 0.0
2018-Jul-17 17:30N 48°41' W 123°24'0 0.0
2018-Jul-17 17:00N 48°41' W 123°24'0 0.0
2018-Jul-17 16:30N 48°41' W 123°24'0 0.0
2018-Jul-17 16:00N 48°41' W 123°24'0 0.0
2018-Jul-17 15:30N 48°41' W 123°24'0 0.0
2018-Jul-17 15:00N 48°41' W 123°24'0 0.0
2018-Jul-17 14:30N 48°41' W 123°24'0 0.0
2018-Jul-17 14:00N 48°41' W 123°24'0 0.0
2018-Jul-17 13:30N 48°41' W 123°24'0 0.0
2018-Jul-17 13:00N 48°41' W 123°24'0 0.0
2018-Jul-17 12:30N 48°41' W 123°24'1 2.1
2018-Jul-17 12:00N 48°42' W 123°23'613.1
2018-Jul-17 11:30N 48°48' W 123°21'812.6
2018-Jul-17 10:54N 48°55' W 123°18'614.8
2018-Jul-17 10:30N 49°01' W 123°20'714.2
2018-Jul-17 10:00N 49°07' W 123°15'815.1
2018-Jul-17 09:30N 49°08' W 123°04'1 2.9
2018-Jul-17 08:59N 49°09' W 123°02'0 0.0
2018-Jul-17 08:27N 49°09' W 123°02'0 0.0
2018-Jul-17 07:37N 49°09' W 123°02'0 0.0
2018-Jul-17 07:29N 49°09' W 123°02'3 6.4
2018-Jul-17 07:00N 49°07' W 123°06'612.8
2018-Jul-17 06:30N 49°07' W 123°16'712.4
2018-Jul-17 05:58N 49°07' W 123°26'715.1
2018-Jul-17 05:30N 49°10' W 123°36'5 1.1
2018-Jul-17 01:14N 49°09' W 123°29'515.8
2018-Jul-17 00:55N 49°07' W 123°21'613.2
2018-Jul-17 00:29N 49°08' W 123°13'7 7.0
2018-Jul-16 23:27N 49°09' W 123°02'0 0.0
2018-Jul-16 22:59N 49°09' W 123°02'0 0.0
2018-Jul-16 22:23N 49°09' W 123°02'3 6.4
2018-Jul-16 21:57N 49°07' W 123°05'611.6
2018-Jul-16 21:28N 49°08' W 123°14'511.1
2018-Jul-16 21:00N 49°04' W 123°19'1115.2
2018-Jul-16 20:16N 48°53' W 123°18'310.6
2018-Jul-16 19:59N 48°51' W 123°21'613.2
2018-Jul-16 19:30N 48°45' W 123°21'4 8.0
2018-Jul-16 19:00N 48°41' W 123°24'0 0.0
2018-Jul-16 18:29N 48°41' W 123°24'0 0.0
2018-Jul-16 18:00N 48°41' W 123°24'0 0.0
2018-Jul-16 17:30N 48°41' W 123°24'0 0.0
2018-Jul-16 17:00N 48°41' W 123°24'0 0.0
2018-Jul-16 16:30N 48°41' W 123°24'0 0.0
2018-Jul-16 16:00N 48°41' W 123°24'0 0.0
2018-Jul-16 15:30N 48°41' W 123°24'0 0.0
2018-Jul-16 15:00N 48°41' W 123°24'0 0.0
2018-Jul-16 14:30N 48°41' W 123°24'0 0.0
2018-Jul-16 13:59N 48°41' W 123°24'0 0.0
2018-Jul-16 13:30N 48°41' W 123°24'0 0.0
2018-Jul-16 13:00N 48°41' W 123°24'0 0.0
2018-Jul-16 12:30N 48°41' W 123°24'0 0.0
2018-Jul-16 12:00N 48°41' W 123°24'0 0.0
2018-Jul-16 11:30N 48°41' W 123°24'0 0.0
2018-Jul-16 11:00N 48°41' W 123°24'0 0.0
2018-Jul-16 10:31N 48°41' W 123°24'0 0.0
2018-Jul-16 10:00N 48°41' W 123°24'3 6.5
2018-Jul-16 09:29N 48°44' W 123°21'612.1
2018-Jul-16 09:00N 48°50' W 123°21'6 9.7
2018-Jul-16 08:25N 48°55' W 123°18'511.7
2018-Jul-16 08:00N 48°60' W 123°21'612.0
2018-Jul-16 07:30N 49°06' W 123°20'613.3
2018-Jul-16 07:00N 49°07' W 123°10'5 9.7
2018-Jul-16 06:27N 49°09' W 123°02'0 0.0
2018-Jul-16 06:00N 49°09' W 123°02'0 0.0
2018-Jul-16 05:30N 49°09' W 123°02'0 0.0
2018-Jul-16 05:00N 49°09' W 123°02'0 0.0
2018-Jul-16 04:30N 49°09' W 123°02'0 0.0
2018-Jul-16 03:55N 49°09' W 123°02'0 0.0
2018-Jul-16 03:28N 49°09' W 123°02'0 0.0
2018-Jul-16 02:59N 49°09' W 123°02'0 0.0
2018-Jul-16 02:28N 49°09' W 123°02'0 0.0
2018-Jul-16 02:00N 49°09' W 123°02'0 0.0
2018-Jul-16 01:30N 49°09' W 123°02'0 0.0
2018-Jul-16 00:53N 49°09' W 123°02'0 0.0
2018-Jul-16 00:23N 49°09' W 123°02'0 0.0
2018-Jul-15 23:53N 49°09' W 123°02'0 0.0
2018-Jul-15 23:22N 49°09' W 123°02'0 0.0
2018-Jul-15 22:59N 49°09' W 123°02'0 0.0
2018-Jul-15 22:26N 49°09' W 123°02'0 0.0
2018-Jul-15 21:54N 49°09' W 123°02'0 0.0
2018-Jul-15 21:29N 49°09' W 123°02'0 0.0
2018-Jul-15 21:00N 49°09' W 123°02'0 0.0
2018-Jul-15 20:30N 49°09' W 123°02'0 0.0
2018-Jul-15 20:00N 49°09' W 123°02'0 0.0
2018-Jul-15 19:30N 49°09' W 123°02'0 0.0
2018-Jul-15 19:00N 49°09' W 123°02'0 0.0
2018-Jul-15 18:30N 49°09' W 123°02'0 0.0
2018-Jul-15 17:59N 49°09' W 123°02'0 0.0
2018-Jul-15 17:30N 49°09' W 123°02'0 0.0
2018-Jul-15 16:59N 49°09' W 123°02'0 0.0
2018-Jul-15 16:30N 49°09' W 123°02'0 0.0
2018-Jul-15 16:00N 49°09' W 123°02'0 0.0
2018-Jul-15 15:30N 49°09' W 123°02'2 3.5
2018-Jul-15 15:00N 49°08' W 123°04'610.2
2018-Jul-15 14:25N 49°08' W 123°13'510.7
2018-Jul-15 13:57N 49°06' W 123°20'511.3
2018-Jul-15 13:30N 49°08' W 123°28'710.8
2018-Jul-15 12:53N 49°10' W 123°37'411.1
2018-Jul-15 12:30N 49°12' W 123°43'7 1.8
2018-Jul-15 08:51N 49°09' W 123°52'18 8.7
2018-Jul-15 06:47N 49°07' W 123°25'310.5
2018-Jul-15 06:28N 49°06' W 123°20'612.2
2018-Jul-15 06:00N 49°07' W 123°12'612.1
2018-Jul-15 05:30N 49°09' W 123°03'0 0.5
2018-Jul-15 05:00N 49°09' W 123°02'0 0.0
2018-Jul-15 04:29N 49°09' W 123°02'0 0.0
2018-Jul-15 03:59N 49°09' W 123°02'0 0.0
2018-Jul-15 03:30N 49°09' W 123°02'0 0.0
2018-Jul-15 02:59N 49°09' W 123°02'0 0.0
2018-Jul-15 02:30N 49°09' W 123°02'0 0.0
2018-Jul-15 02:00N 49°09' W 123°02'0 0.0
2018-Jul-15 01:30N 49°09' W 123°02'0 0.0
2018-Jul-15 01:00N 49°09' W 123°02'0 0.0
2018-Jul-15 00:30N 49°09' W 123°02'0 0.0
2018-Jul-14 23:58N 49°09' W 123°02'0 0.0
2018-Jul-14 22:11N 49°09' W 123°02'0 2.5
2018-Jul-14 22:01N 49°08' W 123°03'611.0
2018-Jul-14 21:30N 49°07' W 123°11'611.1
2018-Jul-14 21:00N 49°06' W 123°19'714.7
2018-Jul-14 20:30N 48°59' W 123°17'713.9
2018-Jul-14 19:59N 48°52' W 123°20'612.8
2018-Jul-14 19:30N 48°46' W 123°21'5 9.5
2018-Jul-14 19:01N 48°41' W 123°24'0 0.4
2018-Jul-14 18:30N 48°41' W 123°24'0 0.0
2018-Jul-14 18:00N 48°41' W 123°24'0 0.0
2018-Jul-14 17:30N 48°41' W 123°24'0 0.0
2018-Jul-14 17:00N 48°41' W 123°24'0 0.0
2018-Jul-14 16:30N 48°41' W 123°24'0 0.0
2018-Jul-14 16:00N 48°41' W 123°24'0 0.0
2018-Jul-14 15:30N 48°41' W 123°24'0 0.0
2018-Jul-14 15:00N 48°41' W 123°24'0 0.0
2018-Jul-14 14:30N 48°41' W 123°24'0 0.0
2018-Jul-14 13:30N 48°41' W 123°24'0 0.0
2018-Jul-14 13:00N 48°41' W 123°24'0 0.0
2018-Jul-14 12:29N 48°41' W 123°24'1 1.6
2018-Jul-14 12:00N 48°42' W 123°23'612.7
2018-Jul-14 11:30N 48°48' W 123°21'811.8
2018-Jul-14 10:52N 48°55' W 123°19'513.9
2018-Jul-14 10:30N 48°60' W 123°21'611.4
2018-Jul-14 09:58N 49°06' W 123°19'713.0
2018-Jul-14 09:27N 49°07' W 123°09'511.2
2018-Jul-14 09:00N 49°09' W 123°02'0 0.1
2018-Jul-14 08:30N 49°09' W 123°02'0 0.0
2018-Jul-14 08:00N 49°09' W 123°02'0 0.0
2018-Jul-14 07:30N 49°09' W 123°02'3 6.3
2018-Jul-14 07:00N 49°07' W 123°06'612.0
2018-Jul-14 06:30N 49°07' W 123°15'714.0
2018-Jul-14 05:59N 49°07' W 123°26'815.8
2018-Jul-14 05:28N 49°10' W 123°38'9 1.9
2018-Jul-14 01:05N 49°08' W 123°25'113.0
2018-Jul-14 00:59N 49°07' W 123°23'612.2
2018-Jul-14 00:30N 49°08' W 123°14'713.2
2018-Jul-14 00:00N 49°08' W 123°04'2 3.6
2018-Jul-13 23:30N 49°09' W 123°02'0 0.0
2018-Jul-13 23:00N 49°09' W 123°02'0 0.0
2018-Jul-13 22:30N 49°09' W 123°02'2 3.5
2018-Jul-13 22:00N 49°08' W 123°04'612.2
2018-Jul-13 21:30N 49°08' W 123°13'5 9.9
2018-Jul-13 20:58N 49°04' W 123°18'713.3
2018-Jul-13 20:26N 48°57' W 123°17'612.3
2018-Jul-13 19:59N 48°52' W 123°20'713.2
2018-Jul-13 19:29N 48°45' W 123°20'5 9.6
2018-Jul-13 19:00N 48°41' W 123°24'0 0.0
2018-Jul-13 18:30N 48°41' W 123°24'0 0.0
2018-Jul-13 18:00N 48°41' W 123°24'0 0.0
2018-Jul-13 17:30N 48°41' W 123°24'0 0.0
2018-Jul-13 17:00N 48°41' W 123°24'0 0.0
2018-Jul-13 16:30N 48°41' W 123°24'0 0.0
2018-Jul-13 16:00N 48°41' W 123°24'0 0.0
2018-Jul-13 15:30N 48°41' W 123°24'0 0.0
2018-Jul-13 15:00N 48°41' W 123°24'0 0.0
2018-Jul-13 14:00N 48°41' W 123°24'0 0.0
2018-Jul-13 13:30N 48°41' W 123°24'0 0.0
2018-Jul-13 13:00N 48°41' W 123°24'0 0.0
2018-Jul-13 12:30N 48°41' W 123°24'2 3.9
2018-Jul-13 12:01N 48°42' W 123°22'916.1
2018-Jul-13 11:28N 48°51' W 123°21'613.0
2018-Jul-13 11:00N 48°57' W 123°20'817.0
2018-Jul-13 10:30N 49°05' W 123°23'713.8
2018-Jul-13 09:58N 49°08' W 123°13'613.8
2018-Jul-13 09:30N 49°08' W 123°03'1 1.7
2018-Jul-13 09:00N 49°09' W 123°02'0 0.0
2018-Jul-13 08:29N 49°09' W 123°02'0 0.0
2018-Jul-13 08:00N 49°09' W 123°02'0 0.0
2018-Jul-13 07:29N 49°09' W 123°02'2 3.5
2018-Jul-13 07:00N 49°08' W 123°04'611.9
2018-Jul-13 06:29N 49°08' W 123°13'613.3
2018-Jul-13 06:00N 49°06' W 123°23'816.0
2018-Jul-13 05:30N 49°09' W 123°34'9 1.9
2018-Jul-13 00:41N 49°06' W 123°21'314.1
2018-Jul-13 00:30N 49°07' W 123°17'713.7
2018-Jul-12 23:58N 49°07' W 123°06'  

Dump ship's entire track history